Aviation Digital Data Service (ADDS)

Output produced by METARs form (1415 UTC 19 April 2019)
found at http://www.aviationweather.gov/metar/data/
 
Forecast for: LYBE (BELGRADE/SURCIN , CS)
Text: TAF LYBE 191100Z 1912/2012 34010KT CAVOK TX20/2012Z TN06/2004Z
Forecast period: 1200 UTC 19 April 2019 to 1200 UTC 20 April 2019
Forecast type: FROM: standard forecast or significant change
Winds: from the NNW (340 degrees) at 12 MPH (10 knots; 5.1 m/s)
Visibility: 6 or more miles 10+ km)
Ceiling: unknown
Clouds: missing
Weather: no significant weather forecast for this period
Text: TEMPO 1912/1919 34020KT
Forecast period: 1200 to 1900 UTC 19 April 2019
Forecast type: TEMPORARY: The following changes expected for less than half the time period
Winds: from the NNW (340 degrees) at 23 MPH (20 knots; 10.3 m/s)
Visibility: missing
Ceiling: unknown
Clouds: missing
Weather: no significant weather forecast for this period